createdAt,value
2018-09-26T00:00:31.845Z,55.75
2018-09-26T00:01:31.660Z,55.74
2018-09-26T00:02:31.593Z,55.7
2018-09-26T00:03:31.786Z,55.75
2018-09-26T00:04:31.554Z,55.82
2018-09-26T00:05:31.817Z,55.78
2018-09-26T00:06:31.797Z,55.77
2018-09-26T00:07:31.398Z,55.79
2018-09-26T00:08:31.831Z,55.79
2018-09-26T00:09:31.601Z,55.77
2018-09-26T00:10:31.845Z,55.73
2018-09-26T00:11:31.546Z,55.82
2018-09-26T00:12:31.738Z,55.84
2018-09-26T00:13:31.421Z,55.87
2018-09-26T00:14:31.702Z,55.81
2018-09-26T00:15:31.989Z,55.84
2018-09-26T00:16:32.011Z,55.82
2018-09-26T00:17:31.571Z,55.81
2018-09-26T00:18:31.505Z,55.81
2018-09-26T00:19:31.886Z,55.86
2018-09-26T00:20:31.634Z,55.79
2018-09-26T00:21:31.921Z,55.77
2018-09-26T00:22:31.804Z,55.78
2018-09-26T00:23:31.837Z,55.79
2018-09-26T00:24:31.834Z,55.79
2018-09-26T00:25:31.634Z,55.87
2018-09-26T00:26:31.566Z,55.84
2018-09-26T00:27:32.175Z,55.82
2018-09-26T00:28:31.510Z,55.77
2018-09-26T00:29:31.910Z,55.74
2018-09-26T00:30:31.582Z,55.79
2018-09-26T00:31:31.811Z,55.75
2018-09-26T00:32:31.582Z,55.74
2018-09-26T00:33:31.490Z,55.78
2018-09-26T00:34:31.397Z,55.77
2018-09-26T00:35:31.776Z,55.81
2018-09-26T00:36:31.492Z,55.81
2018-09-26T00:37:31.357Z,55.81
2018-09-26T00:38:31.713Z,55.83
2018-09-26T00:39:31.867Z,55.79
2018-09-26T00:40:31.684Z,55.77
2018-09-26T00:41:31.377Z,55.8
2018-09-26T00:42:31.405Z,55.85
2018-09-26T00:43:31.567Z,55.82
2018-09-26T00:44:31.751Z,55.87
2018-09-26T00:45:31.577Z,55.82
2018-09-26T00:46:31.672Z,55.87
2018-09-26T00:47:31.775Z,55.85
2018-09-26T00:48:31.639Z,55.82
2018-09-26T00:49:31.443Z,55.85
2018-09-26T00:50:31.775Z,55.82
2018-09-26T00:51:31.514Z,55.76
2018-09-26T00:52:31.512Z,55.78
2018-09-26T00:53:31.449Z,55.86
2018-09-26T00:54:31.501Z,55.85
2018-09-26T00:55:31.569Z,55.84
2018-09-26T00:56:31.533Z,55.8
2018-09-26T00:57:31.458Z,55.81
2018-09-26T00:58:31.461Z,55.8
2018-09-26T00:59:31.406Z,55.82
2018-09-26T01:00:31.608Z,55.81
2018-09-26T01:01:31.594Z,55.78
2018-09-26T01:02:31.494Z,55.81
2018-09-26T01:03:31.629Z,55.79
2018-09-26T01:04:31.666Z,55.85
2018-09-26T01:05:31.473Z,55.85
2018-09-26T01:06:31.577Z,55.84
2018-09-26T01:07:31.490Z,55.8
2018-09-26T01:08:31.729Z,55.8
2018-09-26T01:09:31.458Z,55.81
2018-09-26T01:10:31.498Z,55.81
2018-09-26T01:11:31.964Z,55.8
2018-09-26T01:12:31.860Z,55.79
2018-09-26T01:13:31.926Z,55.74
2018-09-26T01:14:31.590Z,55.79
2018-09-26T01:15:31.909Z,55.81
2018-09-26T01:16:31.469Z,55.73
2018-09-26T01:17:31.822Z,55.79
2018-09-26T01:18:32.024Z,55.87
2018-09-26T01:19:31.915Z,55.87
2018-09-26T01:20:31.639Z,55.84
2018-09-26T01:21:31.830Z,55.78
2018-09-26T01:22:31.855Z,55.79
2018-09-26T01:23:31.875Z,55.78
2018-09-26T01:24:31.854Z,55.7
2018-09-26T01:25:31.647Z,55.73
2018-09-26T01:26:31.499Z,55.75
2018-09-26T01:27:31.893Z,55.79
2018-09-26T01:28:31.651Z,55.81
2018-09-26T01:29:31.907Z,55.81
2018-09-26T01:30:31.927Z,55.77
2018-09-26T01:31:31.689Z,55.76
2018-09-26T01:32:31.427Z,55.74
2018-09-26T01:33:31.923Z,55.79
2018-09-26T01:34:31.549Z,55.73
2018-09-26T01:35:31.569Z,55.77
2018-09-26T01:36:31.566Z,55.76
2018-09-26T01:37:31.524Z,55.73
2018-09-26T01:38:31.580Z,55.74
2018-09-26T01:39:31.546Z,55.75
2018-09-26T01:40:31.560Z,55.75
2018-09-26T01:41:32.959Z,55.78
2018-09-26T01:42:31.609Z,55.79
2018-09-26T01:43:31.713Z,55.71
2018-09-26T01:44:32.042Z,55.71
2018-09-26T01:45:31.800Z,55.74
2018-09-26T01:46:31.486Z,55.71
2018-09-26T01:47:31.453Z,55.74
2018-09-26T01:48:31.548Z,55.64
2018-09-26T01:49:31.477Z,55.75
2018-09-26T01:50:31.820Z,55.76
2018-09-26T01:51:31.826Z,55.77
2018-09-26T01:52:31.422Z,55.72
2018-09-26T01:53:31.700Z,55.75
2018-09-26T01:54:31.666Z,55.7
2018-09-26T01:55:31.657Z,55.74
2018-09-26T01:56:31.908Z,55.74
2018-09-26T01:57:31.952Z,55.78
2018-09-26T01:58:31.409Z,55.78
2018-09-26T01:59:31.437Z,55.68
2018-09-26T02:00:31.825Z,55.7
2018-09-26T02:01:32.125Z,55.75
2018-09-26T02:02:31.619Z,55.73
2018-09-26T02:03:31.745Z,55.77
2018-09-26T02:04:31.524Z,55.78
2018-09-26T02:05:31.499Z,55.73
2018-09-26T02:06:31.598Z,55.72
2018-09-26T02:07:31.443Z,55.78
2018-09-26T02:08:31.656Z,55.74
2018-09-26T02:09:31.684Z,55.72
2018-09-26T02:10:31.411Z,55.8
2018-09-26T02:11:31.436Z,55.74
2018-09-26T02:12:31.436Z,55.75
2018-09-26T02:13:31.504Z,55.67
2018-09-26T02:14:31.369Z,55.71
2018-09-26T02:15:31.461Z,55.79
2018-09-26T02:16:31.386Z,55.75
2018-09-26T02:17:31.742Z,55.74
2018-09-26T02:18:31.596Z,55.71
2018-09-26T02:19:32.036Z,55.72
2018-09-26T02:20:31.740Z,55.74
2018-09-26T02:21:31.495Z,55.74
2018-09-26T02:22:31.502Z,55.72
2018-09-26T02:23:32.059Z,55.73
2018-09-26T02:24:31.591Z,55.74
2018-09-26T02:25:31.573Z,55.65
2018-09-26T02:26:31.633Z,55.74
2018-09-26T02:27:31.602Z,55.77
2018-09-26T02:28:31.879Z,55.75
2018-09-26T02:29:31.599Z,55.69
2018-09-26T02:30:31.840Z,55.71
2018-09-26T02:31:31.465Z,55.73
2018-09-26T02:32:31.457Z,55.76
2018-09-26T02:33:31.808Z,55.75
2018-09-26T02:34:31.490Z,55.77
2018-09-26T02:35:31.481Z,55.78
2018-09-26T02:36:31.774Z,55.74
2018-09-26T02:37:31.564Z,55.74
2018-09-26T02:38:31.480Z,55.74
2018-09-26T02:39:31.790Z,55.75
2018-09-26T02:40:31.840Z,55.79
2018-09-26T02:41:31.933Z,55.74
2018-09-26T02:42:31.646Z,55.77
2018-09-26T02:43:31.453Z,55.75
2018-09-26T02:44:31.437Z,55.78
2018-09-26T02:45:31.664Z,55.74
2018-09-26T02:46:31.644Z,55.7
2018-09-26T02:47:31.485Z,55.72
2018-09-26T02:48:31.649Z,55.75
2018-09-26T02:49:31.390Z,55.68
2018-09-26T02:50:31.542Z,55.68
2018-09-26T02:51:31.366Z,55.64
2018-09-26T02:52:32.525Z,55.64
2018-09-26T02:53:31.565Z,55.69
2018-09-26T02:54:31.564Z,55.73
2018-09-26T02:55:31.789Z,55.72
2018-09-26T02:56:31.588Z,55.72
2018-09-26T02:57:31.370Z,55.73
2018-09-26T02:58:31.670Z,55.65
2018-09-26T02:59:31.468Z,55.72
2018-09-26T03:00:31.575Z,55.71
2018-09-26T03:01:31.927Z,55.7
2018-09-26T03:02:31.319Z,55.68
2018-09-26T03:03:31.544Z,55.66
2018-09-26T03:04:31.607Z,55.62
2018-09-26T03:05:31.588Z,55.64
2018-09-26T03:06:31.681Z,55.7
2018-09-26T03:07:31.548Z,55.69
2018-09-26T03:08:31.927Z,55.73
2018-09-26T03:09:31.419Z,55.72
2018-09-26T03:10:31.881Z,55.74
2018-09-26T03:11:31.791Z,55.68
2018-09-26T03:12:31.363Z,55.73
2018-09-26T03:13:31.917Z,55.76
2018-09-26T03:14:31.502Z,55.8
2018-09-26T03:15:31.924Z,55.7
2018-09-26T03:16:31.664Z,55.73
2018-09-26T03:17:32.652Z,55.7
2018-09-26T03:18:31.545Z,55.7
2018-09-26T03:19:32.150Z,55.72
2018-09-26T03:20:31.413Z,55.73
2018-09-26T03:21:31.386Z,55.71
2018-09-26T03:22:31.882Z,55.75
2018-09-26T03:23:31.505Z,55.79
2018-09-26T03:24:31.727Z,55.75
2018-09-26T03:25:31.437Z,55.78
2018-09-26T03:26:31.505Z,55.77
2018-09-26T03:27:31.467Z,55.79
2018-09-26T03:28:31.416Z,55.69
2018-09-26T03:29:31.450Z,55.62
2018-09-26T03:30:31.599Z,55.67
2018-09-26T03:31:31.481Z,55.59
2018-09-26T03:32:31.419Z,55.56
2018-09-26T03:33:32.167Z,55.7
2018-09-26T03:34:31.282Z,55.74
2018-09-26T03:35:31.515Z,55.67
2018-09-26T03:36:31.590Z,55.69
2018-09-26T03:37:31.460Z,55.71
2018-09-26T03:38:31.548Z,55.74
2018-09-26T03:39:31.654Z,55.69
2018-09-26T03:40:31.325Z,55.69
2018-09-26T03:41:31.421Z,55.64
2018-09-26T03:42:31.810Z,55.66
2018-09-26T03:43:31.349Z,55.69
2018-09-26T03:44:31.943Z,55.7
2018-09-26T03:45:31.840Z,55.66
2018-09-26T03:46:31.538Z,55.67
2018-09-26T03:47:31.929Z,55.65
2018-09-26T03:48:31.818Z,55.67
2018-09-26T03:49:31.512Z,55.67
2018-09-26T03:50:31.605Z,55.65
2018-09-26T03:51:31.527Z,55.71
2018-09-26T03:52:31.533Z,55.67
2018-09-26T03:53:31.455Z,55.63
2018-09-26T03:54:31.614Z,55.69
2018-09-26T03:55:31.721Z,55.71
2018-09-26T03:56:31.390Z,55.65
2018-09-26T03:57:31.985Z,55.69
2018-09-26T03:58:31.688Z,55.63
2018-09-26T03:59:31.908Z,55.68
2018-09-26T04:00:31.473Z,55.68
2018-09-26T04:01:31.473Z,55.68
2018-09-26T04:02:31.563Z,55.61
2018-09-26T04:03:31.694Z,55.69
2018-09-26T04:04:31.595Z,55.66
2018-09-26T04:05:31.432Z,55.68
2018-09-26T04:06:31.498Z,55.66
2018-09-26T04:07:31.893Z,55.67
2018-09-26T04:08:31.422Z,55.63
2018-09-26T04:09:31.541Z,55.62
2018-09-26T04:10:31.461Z,55.64
2018-09-26T04:11:31.691Z,55.63
2018-09-26T04:12:32.296Z,55.61
2018-09-26T04:13:31.481Z,55.58
2018-09-26T04:14:31.511Z,55.65
2018-09-26T04:15:32.420Z,55.69
2018-09-26T04:16:31.786Z,55.73
2018-09-26T04:17:31.573Z,55.67
2018-09-26T04:18:31.393Z,55.7
2018-09-26T04:19:31.835Z,55.62
2018-09-26T04:20:32.810Z,55.69
2018-09-26T04:21:31.977Z,55.66
2018-09-26T04:22:31.385Z,55.62
2018-09-26T04:23:31.553Z,55.7
2018-09-26T04:24:31.711Z,55.65
2018-09-26T04:25:31.482Z,55.63
2018-09-26T04:26:33.949Z,55.61
2018-09-26T04:27:33.852Z,55.63
2018-09-26T04:28:31.614Z,55.63
2018-09-26T04:29:31.710Z,55.63
2018-09-26T04:30:33.333Z,55.65
2018-09-26T04:31:31.727Z,55.64
2018-09-26T04:32:32.403Z,55.62
2018-09-26T04:33:33.058Z,55.66
2018-09-26T04:34:31.881Z,55.65
2018-09-26T04:35:31.609Z,55.63
2018-09-26T04:36:31.578Z,55.62
2018-09-26T04:37:31.368Z,55.63
2018-09-26T04:38:32.688Z,55.63
2018-09-26T04:39:31.848Z,55.63
2018-09-26T04:40:31.618Z,55.61
2018-09-26T04:41:31.863Z,55.58
2018-09-26T04:42:31.331Z,55.62
2018-09-26T04:43:31.415Z,55.62
2018-09-26T04:44:31.474Z,55.56
2018-09-26T04:45:31.482Z,55.64
2018-09-26T04:46:31.466Z,55.63
2018-09-26T04:47:31.401Z,55.6
2018-09-26T04:48:31.368Z,55.59
2018-09-26T04:49:31.582Z,55.58
2018-09-26T04:50:31.338Z,55.59
2018-09-26T04:51:31.397Z,55.54
2018-09-26T04:52:31.453Z,55.55
2018-09-26T04:53:31.343Z,55.55
2018-09-26T04:54:31.546Z,55.57
2018-09-26T04:55:31.556Z,55.62
2018-09-26T04:56:31.479Z,55.56
2018-09-26T04:57:31.314Z,55.55
2018-09-26T04:58:31.336Z,55.59
2018-09-26T04:59:31.347Z,55.52
2018-09-26T05:00:31.302Z,55.58
2018-09-26T05:01:31.417Z,55.59
2018-09-26T05:02:31.461Z,55.61
2018-09-26T05:03:31.346Z,55.59
2018-09-26T05:04:31.340Z,55.58
2018-09-26T05:05:31.651Z,55.52
2018-09-26T05:06:31.296Z,55.61
2018-09-26T05:07:31.320Z,55.54
2018-09-26T05:08:31.339Z,55.58
2018-09-26T05:09:31.380Z,55.54
2018-09-26T05:10:31.548Z,55.56
2018-09-26T05:11:31.598Z,55.63
2018-09-26T05:12:31.476Z,55.6
2018-09-26T05:13:31.550Z,55.67
2018-09-26T05:14:31.733Z,55.62
2018-09-26T05:15:31.478Z,55.59
2018-09-26T05:16:31.551Z,55.61
2018-09-26T05:17:31.921Z,55.56
2018-09-26T05:18:31.422Z,55.62
2018-09-26T05:19:31.509Z,55.65
2018-09-26T05:20:31.482Z,55.66
2018-09-26T05:21:31.826Z,55.68
2018-09-26T05:22:31.584Z,55.69
2018-09-26T05:23:31.412Z,55.66
2018-09-26T05:24:31.405Z,55.59
2018-09-26T05:25:31.746Z,55.57
2018-09-26T05:26:31.573Z,55.57
2018-09-26T05:27:31.393Z,55.59
2018-09-26T05:28:31.753Z,55.59
2018-09-26T05:29:31.391Z,55.55
2018-09-26T05:30:32.494Z,55.54
2018-09-26T05:31:31.567Z,55.57
2018-09-26T05:32:31.911Z,55.57
2018-09-26T05:33:31.874Z,55.64
2018-09-26T05:34:31.446Z,55.63
2018-09-26T05:35:31.727Z,55.54
2018-09-26T05:36:31.494Z,55.55
2018-09-26T05:37:31.305Z,55.62
2018-09-26T05:38:31.650Z,55.66
2018-09-26T05:39:31.937Z,55.59
2018-09-26T05:40:31.551Z,55.61
2018-09-26T05:41:32.037Z,55.59
2018-09-26T05:42:31.378Z,55.66
2018-09-26T05:43:31.571Z,55.67
2018-09-26T05:44:31.679Z,55.67
2018-09-26T05:45:32.015Z,55.7
2018-09-26T05:46:31.348Z,55.62
2018-09-26T05:47:31.945Z,55.61
2018-09-26T05:48:31.461Z,55.61
2018-09-26T05:49:31.359Z,55.61
2018-09-26T05:50:31.585Z,55.58
2018-09-26T05:51:31.421Z,55.55
2018-09-26T05:52:31.408Z,55.51
2018-09-26T05:53:32.752Z,55.6
2018-09-26T05:54:31.447Z,55.61
2018-09-26T05:55:31.411Z,55.66
2018-09-26T05:56:31.702Z,55.63
2018-09-26T05:57:31.386Z,55.63
2018-09-26T05:58:31.743Z,55.66
2018-09-26T05:59:32.065Z,55.62
2018-09-26T06:00:31.474Z,55.71
2018-09-26T06:01:31.745Z,55.64
2018-09-26T06:02:31.335Z,55.56
2018-09-26T06:03:31.412Z,55.64
2018-09-26T06:04:31.808Z,55.58
2018-09-26T06:05:32.951Z,55.51
2018-09-26T06:06:31.448Z,55.63
2018-09-26T06:07:31.413Z,55.66
2018-09-26T06:08:31.388Z,55.65
2018-09-26T06:09:31.540Z,55.67
2018-09-26T06:10:31.506Z,55.7
2018-09-26T06:11:31.541Z,55.66
2018-09-26T06:12:31.430Z,55.66
2018-09-26T06:13:31.498Z,55.66
2018-09-26T06:14:31.291Z,55.66
2018-09-26T06:15:31.839Z,55.64
2018-09-26T06:16:31.296Z,55.67
2018-09-26T06:17:31.361Z,55.59
2018-09-26T06:18:31.436Z,55.55
2018-09-26T06:19:31.799Z,55.59
2018-09-26T06:20:31.385Z,55.53
2018-09-26T06:21:31.317Z,55.55
2018-09-26T06:22:31.558Z,55.58
2018-09-26T06:23:31.247Z,55.62
2018-09-26T06:24:31.986Z,55.56
2018-09-26T06:25:31.342Z,55.52
2018-09-26T06:26:31.645Z,55.57
2018-09-26T06:27:31.904Z,55.48
2018-09-26T06:28:31.245Z,55.53
2018-09-26T06:29:31.589Z,55.55
2018-09-26T06:30:31.423Z,55.48
2018-09-26T06:31:31.487Z,55.55
2018-09-26T06:32:31.840Z,55.58
2018-09-26T06:33:31.414Z,55.57
2018-09-26T06:34:31.505Z,55.59
2018-09-26T06:35:31.467Z,55.54
2018-09-26T06:36:31.491Z,55.58
2018-09-26T06:37:31.411Z,55.55
2018-09-26T06:38:31.536Z,55.53
2018-09-26T06:39:31.966Z,55.52
2018-09-26T06:40:33.082Z,55.6
2018-09-26T06:41:31.306Z,55.58
2018-09-26T06:42:32.397Z,55.6
2018-09-26T06:43:31.621Z,55.57
2018-09-26T06:44:32.309Z,55.63
2018-09-26T06:45:31.615Z,55.56
2018-09-26T06:46:31.441Z,55.64
2018-09-26T06:47:32.536Z,55.65
2018-09-26T06:48:31.411Z,55.59
2018-09-26T06:49:31.310Z,55.62
2018-09-26T06:50:31.453Z,55.64
2018-09-26T06:51:31.582Z,55.55
2018-09-26T06:52:31.522Z,55.56
2018-09-26T06:53:31.498Z,55.57
2018-09-26T06:54:31.506Z,55.55
2018-09-26T06:55:31.516Z,55.57
2018-09-26T06:56:31.387Z,55.6
2018-09-26T06:57:31.551Z,55.6
2018-09-26T06:58:31.844Z,55.57
2018-09-26T06:59:31.263Z,55.54
2018-09-26T07:00:31.235Z,55.53
2018-09-26T07:01:31.460Z,55.52
2018-09-26T07:02:31.382Z,55.53
2018-09-26T07:03:31.365Z,55.61
2018-09-26T07:04:31.338Z,55.55
2018-09-26T07:05:31.796Z,55.59
2018-09-26T07:06:31.848Z,55.63
2018-09-26T07:07:31.277Z,55.63
2018-09-26T07:08:31.737Z,55.54
2018-09-26T07:09:31.427Z,55.59
2018-09-26T07:10:31.334Z,55.54
2018-09-26T07:11:31.590Z,55.49
2018-09-26T07:12:31.521Z,55.55
2018-09-26T07:13:31.603Z,55.55
2018-09-26T07:14:31.369Z,55.53
2018-09-26T07:15:31.287Z,55.47
2018-09-26T07:16:31.486Z,55.57
2018-09-26T07:17:31.583Z,55.59
2018-09-26T07:18:31.363Z,55.56
2018-09-26T07:19:31.527Z,55.66
2018-09-26T07:20:31.342Z,55.62
2018-09-26T07:21:31.409Z,55.58
2018-09-26T07:22:31.455Z,55.54
2018-09-26T07:23:31.497Z,55.6
2018-09-26T07:24:31.402Z,55.49
2018-09-26T07:25:31.666Z,55.6
2018-09-26T07:26:31.367Z,55.63
2018-09-26T07:27:31.740Z,55.56
2018-09-26T07:28:31.593Z,55.59
2018-09-26T07:29:31.445Z,55.58
2018-09-26T07:30:31.352Z,55.58
2018-09-26T07:31:33.002Z,55.65
2018-09-26T07:32:31.618Z,55.71
2018-09-26T07:33:31.479Z,55.78
2018-09-26T07:34:31.384Z,55.65
2018-09-26T07:35:31.351Z,55.55
2018-09-26T07:36:31.550Z,55.52
2018-09-26T07:37:31.361Z,55.59
2018-09-26T07:38:32.869Z,55.62
2018-09-26T07:39:31.234Z,55.6
2018-09-26T07:40:31.420Z,55.59
2018-09-26T07:41:31.450Z,55.57
2018-09-26T07:42:31.551Z,55.63
2018-09-26T07:43:31.423Z,55.69
2018-09-26T07:44:31.385Z,55.61
2018-09-26T07:45:32.921Z,55.6
2018-09-26T07:46:31.519Z,55.53
2018-09-26T07:47:31.281Z,55.7
2018-09-26T07:48:31.460Z,55.67
2018-09-26T07:49:31.334Z,55.8
2018-09-26T07:50:31.359Z,55.84
2018-09-26T07:51:31.682Z,55.7
2018-09-26T07:52:31.670Z,55.73
2018-09-26T07:53:31.492Z,55.53
2018-09-26T07:54:31.419Z,55.65
2018-09-26T07:55:31.374Z,55.62
2018-09-26T07:56:31.616Z,55.62
2018-09-26T07:57:31.384Z,55.73
2018-09-26T07:58:31.492Z,55.66
2018-09-26T07:59:31.656Z,55.7
2018-09-26T08:00:31.532Z,55.6
2018-09-26T08:01:31.413Z,55.63
2018-09-26T08:02:31.545Z,55.68
2018-09-26T08:03:31.531Z,55.7
2018-09-26T08:04:31.496Z,55.73
2018-09-26T08:05:31.640Z,55.76
2018-09-26T08:06:31.490Z,55.68
2018-09-26T08:07:31.670Z,55.74
2018-09-26T08:08:31.431Z,55.84
2018-09-26T08:09:31.583Z,55.73
2018-09-26T08:10:31.495Z,55.67
2018-09-26T08:11:31.966Z,55.54
2018-09-26T08:12:31.233Z,55.38
2018-09-26T08:13:31.417Z,55.36
2018-09-26T08:14:31.339Z,55.27
2018-09-26T08:15:31.835Z,55.52
2018-09-26T08:16:31.357Z,55.51
2018-09-26T08:17:31.706Z,55.6
2018-09-26T08:18:32.332Z,55.62
2018-09-26T08:19:31.345Z,55.62
2018-09-26T08:20:31.561Z,55.75
2018-09-26T08:21:31.454Z,55.79
2018-09-26T08:22:31.419Z,55.87
2018-09-26T08:23:31.527Z,55.72
2018-09-26T08:24:31.511Z,55.79
2018-09-26T08:25:31.607Z,55.83
2018-09-26T08:26:31.478Z,55.86
2018-09-26T08:27:31.532Z,55.86
2018-09-26T08:28:31.617Z,55.97
2018-09-26T08:29:31.494Z,55.99
2018-09-26T08:30:31.426Z,55.95
2018-09-26T08:31:31.561Z,56
2018-09-26T08:32:31.382Z,56.12
2018-09-26T08:33:32.326Z,56.19
2018-09-26T08:34:31.494Z,56.16
2018-09-26T08:35:31.505Z,56.25
2018-09-26T08:36:31.518Z,56.05
2018-09-26T08:37:32.036Z,56.21
2018-09-26T08:38:31.649Z,56.26
2018-09-26T08:39:31.413Z,56.15
2018-09-26T08:40:31.689Z,56.17
2018-09-26T08:41:31.596Z,56.14
2018-09-26T08:42:31.527Z,56.07
2018-09-26T08:43:31.284Z,56.11
2018-09-26T08:44:32.299Z,56.2
2018-09-26T08:45:31.508Z,56.13
2018-09-26T08:46:31.541Z,56.13
2018-09-26T08:47:31.282Z,56.17
2018-09-26T08:48:31.623Z,56.22
2018-09-26T08:49:31.820Z,56.2
2018-09-26T08:50:31.471Z,56.24
2018-09-26T08:51:32.528Z,56.2
2018-09-26T08:52:31.429Z,56.28
2018-09-26T08:53:31.451Z,56.37
2018-09-26T08:54:31.869Z,56.21
2018-09-26T08:55:31.459Z,56.15
2018-09-26T08:56:31.356Z,56.08
2018-09-26T08:57:31.344Z,56.09
2018-09-26T08:58:31.357Z,56.04
2018-09-26T08:59:31.919Z,56.09
2018-09-26T09:00:31.464Z,56.04
2018-09-26T09:01:31.254Z,56.1
2018-09-26T09:02:31.403Z,56.14
2018-09-26T09:03:31.493Z,56.1
2018-09-26T09:04:31.356Z,56.18
2018-09-26T09:05:31.219Z,56.12
2018-09-26T09:06:31.231Z,56.19
2018-09-26T09:07:31.447Z,56.3
2018-09-26T09:08:00.509Z,56.29
2018-09-26T09:09:00.241Z,56.15
2018-09-26T09:10:00.388Z,56.22
2018-09-26T09:11:00.324Z,56.23
2018-09-26T09:12:00.365Z,54.31
2018-09-26T09:13:00.353Z,54.02
2018-09-26T09:14:00.353Z,54.81
2018-09-26T09:15:00.405Z,55.1
2018-09-26T09:16:01.422Z,54.84
2018-09-26T09:17:00.271Z,55.09
2018-09-26T09:18:00.240Z,55.05
2018-09-26T09:19:00.674Z,55.04
2018-09-26T09:20:00.497Z,54.93
2018-09-26T09:21:00.584Z,54.95
2018-09-26T09:22:00.914Z,54.82
2018-09-26T09:23:00.136Z,54.88
2018-09-26T09:24:00.193Z,54.86
2018-09-26T09:25:00.864Z,54.48
2018-09-26T09:26:00.341Z,53.89
2018-09-26T09:27:01.608Z,53.95
2018-09-26T09:28:00.327Z,54.13
2018-09-26T09:29:00.786Z,54.08
2018-09-26T09:30:01.198Z,53.78
2018-09-26T09:31:00.455Z,53.73
2018-09-26T09:32:00.581Z,53.59
2018-09-26T09:33:00.602Z,53.42
2018-09-26T09:34:00.497Z,53.44
2018-09-26T09:35:00.829Z,53.31
2018-09-26T09:36:00.408Z,53.61
2018-09-26T09:37:00.426Z,53.67
2018-09-26T09:38:00.630Z,53.42
2018-09-26T09:39:00.508Z,53.62
2018-09-26T09:40:00.516Z,52.97
2018-09-26T09:41:00.871Z,53.03
2018-09-26T09:42:00.490Z,53.26
2018-09-26T09:43:00.642Z,53.43
2018-09-26T09:44:01.722Z,53.13
2018-09-26T09:45:00.374Z,53.27
2018-09-26T09:46:00.457Z,53.05
2018-09-26T09:47:00.363Z,53.15
2018-09-26T09:48:00.382Z,52.94
2018-09-26T09:49:00.699Z,52.73
2018-09-26T09:50:00.481Z,52.81
2018-09-26T09:51:00.834Z,52.77
2018-09-26T09:52:00.491Z,52.93
2018-09-26T09:53:00.463Z,52.84
2018-09-26T09:54:00.166Z,52.79
2018-09-26T09:55:00.201Z,52.54
2018-09-26T09:56:08.033Z,52.54
2018-09-26T09:57:13.008Z,51.59
2018-09-26T09:58:12.703Z,52.9
2018-09-26T09:59:12.735Z,52.44
2018-09-26T10:00:12.528Z,53.05
2018-09-26T10:01:12.720Z,52.56
2018-09-26T10:02:13.092Z,52.77
2018-09-26T10:03:12.898Z,52.86
2018-09-26T10:04:12.783Z,52.67
2018-09-26T10:05:13.142Z,53.29
2018-09-26T10:06:20.010Z,54.07
2018-09-26T10:07:19.469Z,52.22
2018-09-26T10:08:20.637Z,52.59
2018-09-26T10:09:19.326Z,52.46
2018-09-26T10:10:19.332Z,52.32
2018-09-26T10:11:19.329Z,51.98
2018-09-26T10:12:19.301Z,52.22
2018-09-26T10:13:19.973Z,52.11
2018-09-26T10:14:21.024Z,52.05
2018-09-26T10:15:19.176Z,51.83
2018-09-26T10:16:19.434Z,51.76
2018-09-26T10:17:19.489Z,51.14
2018-09-26T10:18:19.494Z,51.75
2018-09-26T10:19:19.335Z,51.8
2018-09-26T10:20:20.376Z,51.22
2018-09-26T10:21:19.510Z,51.59
2018-09-26T10:22:19.764Z,51.37
2018-09-26T10:23:19.499Z,51.31
2018-09-26T10:24:19.510Z,51.62
2018-09-26T10:25:19.835Z,51.78
2018-09-26T10:26:20.322Z,51.83
2018-09-26T10:27:19.379Z,51.37
2018-09-26T10:28:19.702Z,51.65
2018-09-26T10:29:19.386Z,51.59
2018-09-26T10:30:19.409Z,51.5
2018-09-26T10:31:19.282Z,51.66
2018-09-26T10:32:20.587Z,51.81
2018-09-26T10:33:19.492Z,51.93
2018-09-26T10:34:19.363Z,51.82
2018-09-26T10:35:19.574Z,51.92
2018-09-26T10:36:19.286Z,51.91
2018-09-26T10:37:19.880Z,51.76
2018-09-26T10:38:20.620Z,51.92
2018-09-26T10:39:19.297Z,51.87
2018-09-26T10:40:19.269Z,51.98
2018-09-26T10:41:19.509Z,52.14
2018-09-26T10:42:19.754Z,52.18
2018-09-26T10:43:19.853Z,51.95
2018-09-26T10:44:20.076Z,51.97
2018-09-26T10:45:19.533Z,52.34
2018-09-26T10:46:19.498Z,52.31
2018-09-26T10:47:19.667Z,52.23
2018-09-26T10:48:19.327Z,52.26
2018-09-26T10:49:19.333Z,52.27
2018-09-26T10:50:20.363Z,52.37
2018-09-26T10:51:19.500Z,52.51
2018-09-26T10:52:19.276Z,52.38
2018-09-26T10:53:19.702Z,52.48
2018-09-26T10:54:19.367Z,52.55
2018-09-26T10:55:19.783Z,52.56
2018-09-26T10:56:20.861Z,52.58
2018-09-26T10:57:19.535Z,52.62
2018-09-26T10:58:19.467Z,52.57
2018-09-26T10:59:19.255Z,52.71
2018-09-26T11:00:19.371Z,52.69
2018-09-26T11:01:19.557Z,52.67
2018-09-26T11:02:20.317Z,52.73
2018-09-26T11:03:19.267Z,52.83
2018-09-26T11:04:20.423Z,52.85
2018-09-26T11:05:19.214Z,52.83
2018-09-26T11:06:19.511Z,52.91
2018-09-26T11:07:19.456Z,52.89
2018-09-26T11:08:20.130Z,52.88
2018-09-26T11:09:19.389Z,53.03
2018-09-26T11:10:20.285Z,52.98
2018-09-26T11:11:19.381Z,53.05
2018-09-26T11:12:19.459Z,53.03
2018-09-26T11:13:19.272Z,53.03
2018-09-26T11:14:20.072Z,53.08
2018-09-26T11:15:20.568Z,53.12
2018-09-26T11:16:20.271Z,53.05
2018-09-26T11:17:19.263Z,53.08
2018-09-26T11:18:19.477Z,53.2
2018-09-26T11:19:19.367Z,53.26
2018-09-26T11:20:21.137Z,53.24
2018-09-26T11:21:20.164Z,53.3
2018-09-26T11:22:20.836Z,53.32
2018-09-26T11:23:19.747Z,53.36
2018-09-26T11:24:19.375Z,53.36
2018-09-26T11:25:19.478Z,53.42
2018-09-26T11:26:21.606Z,53.48
2018-09-26T11:27:19.354Z,53.53
2018-09-26T11:28:20.759Z,53.58
2018-09-26T11:29:19.403Z,53.57
2018-09-26T11:30:19.376Z,53.62
2018-09-26T11:31:19.490Z,53.61
2018-09-26T11:32:20.563Z,53.57
2018-09-26T11:33:20.551Z,53.55
2018-09-26T11:34:20.423Z,53.61
2018-09-26T11:35:19.323Z,53.68
2018-09-26T11:36:19.420Z,53.63
2018-09-26T11:37:19.240Z,53.63
2018-09-26T11:38:20.850Z,53.56
2018-09-26T11:39:19.488Z,53.64
2018-09-26T11:40:20.273Z,53.74
2018-09-26T11:41:19.203Z,53.66
2018-09-26T11:42:19.232Z,53.69
2018-09-26T11:43:19.303Z,53.74
2018-09-26T11:44:20.747Z,53.71
2018-09-26T11:45:19.565Z,53.68
2018-09-26T11:46:20.591Z,53.75
2018-09-26T11:47:19.718Z,53.75
2018-09-26T11:48:19.449Z,53.73
2018-09-26T11:49:19.383Z,53.74
2018-09-26T11:50:20.463Z,53.77
2018-09-26T11:51:19.331Z,53.84
2018-09-26T11:52:20.678Z,53.83
2018-09-26T11:53:19.298Z,53.84
2018-09-26T11:54:19.575Z,53.88
2018-09-26T11:55:19.528Z,53.91
2018-09-26T11:56:19.804Z,53.97
2018-09-26T11:57:19.540Z,54
2018-09-26T11:58:20.197Z,53.97
2018-09-26T11:59:19.619Z,53.95
2018-09-26T12:00:19.556Z,53.99
2018-09-26T12:01:19.367Z,53.98
2018-09-26T12:02:20.638Z,53.95
2018-09-26T12:03:19.272Z,53.99
2018-09-26T12:04:20.472Z,54.05
2018-09-26T12:05:19.385Z,54.07
2018-09-26T12:06:20.756Z,54.05
2018-09-26T12:07:20.152Z,54.11
2018-09-26T12:08:20.723Z,54.03
2018-09-26T12:09:19.377Z,54.07
2018-09-26T12:10:20.597Z,54.06
2018-09-26T12:11:19.631Z,54.02
2018-09-26T12:12:20.532Z,53.99
2018-09-26T12:13:19.459Z,54.14
2018-09-26T12:14:19.434Z,54.09
2018-09-26T12:15:20.133Z,54.09
2018-09-26T12:16:20.418Z,54.22
2018-09-26T12:17:19.731Z,54.09
2018-09-26T12:18:20.512Z,54.06
2018-09-26T12:19:20.440Z,54.16
2018-09-26T12:20:19.768Z,54.29
2018-09-26T12:21:31.134Z,54.24
2018-09-26T12:22:21.362Z,54.24
2018-09-26T12:23:19.369Z,54.13
2018-09-26T12:24:20.369Z,54.17
2018-09-26T12:25:20.208Z,54.23
2018-09-26T12:26:19.375Z,54.19
2018-09-26T12:27:19.357Z,54.14
2018-09-26T12:28:20.380Z,54.09
2018-09-26T12:29:19.287Z,54.04
2018-09-26T12:30:21.717Z,54.15
2018-09-26T12:31:19.511Z,54.13
2018-09-26T12:32:19.177Z,54.1
2018-09-26T12:33:19.354Z,54.13
2018-09-26T12:34:20.150Z,54.08
2018-09-26T12:35:19.277Z,54.08
2018-09-26T12:36:20.207Z,54.09
2018-09-26T12:37:19.302Z,54.13
2018-09-26T12:38:19.339Z,54.11
2018-09-26T12:39:19.250Z,54.15
2018-09-26T12:40:20.585Z,54.11
2018-09-26T12:41:19.192Z,54.2
2018-09-26T12:42:20.786Z,54.14
2018-09-26T12:43:19.242Z,54.15
2018-09-26T12:44:19.210Z,54.24
2018-09-26T12:45:19.385Z,54.37
2018-09-26T12:46:20.508Z,54.41
2018-09-26T12:47:20.257Z,54.38
2018-09-26T12:48:20.051Z,54.4
2018-09-26T12:49:19.386Z,54.35
2018-09-26T12:50:19.454Z,54.34
2018-09-26T12:51:19.182Z,54.32
2018-09-26T12:52:20.375Z,54.24
2018-09-26T12:53:19.265Z,54.19
2018-09-26T12:54:19.528Z,54.25